sensor_id;sensor_type;location;lat;lon;timestamp;pressure;altitude;pressure_sealevel;temperature;humidity
53689;BME280;39583;54.682;30.662;2023-01-29T08:49:12;99547.72;;;-0.86;100.00
53689;BME280;39583;54.682;30.662;2023-01-29T08:51:39;99539.75;;;-0.76;100.00
53689;BME280;39583;54.682;30.662;2023-01-29T08:54:05;99545.25;;;-0.60;100.00
53689;BME280;39583;54.682;30.662;2023-01-29T08:56:31;99538.38;;;-0.53;100.00
53689;BME280;39583;54.682;30.662;2023-01-29T08:58:57;99531.63;;;-0.38;100.00
53689;BME280;39583;54.682;30.662;2023-01-29T09:01:23;99532.16;;;-0.34;100.00
53689;BME280;39583;54.682;30.662;2023-01-29T09:03:49;99524.22;;;-0.34;100.00
53689;BME280;39583;54.682;30.662;2023-01-29T09:06:15;99520.59;;;-0.33;100.00
53689;BME280;39583;54.682;30.662;2023-01-29T09:08:41;99515.16;;;-0.32;100.00
53689;BME280;39583;54.682;30.662;2023-01-29T09:11:07;99515.53;;;-0.26;100.00
53689;BME280;39583;54.682;30.662;2023-01-29T09:13:33;99519.25;;;-0.19;100.00
53689;BME280;39583;54.682;30.662;2023-01-29T09:16:00;99516.84;;;-0.13;100.00
53689;BME280;39583;54.682;30.662;2023-01-29T09:18:28;99517.69;;;-0.12;99.97
53689;BME280;39583;54.682;30.662;2023-01-29T09:20:54;99518.06;;;-0.07;100.00
53689;BME280;39583;54.682;30.662;2023-01-29T09:23:20;99514.41;;;-0.06;99.80
53689;BME280;39583;54.682;30.662;2023-01-29T09:25:46;99514.22;;;-0.13;98.99
53689;BME280;39583;54.682;30.662;2023-01-29T09:28:12;99522.06;;;-0.21;98.62
53689;BME280;39583;54.682;30.662;2023-01-29T09:30:39;99515.78;;;-0.20;99.06
53689;BME280;39583;54.682;30.662;2023-01-29T09:33:05;99510.63;;;-0.21;98.88
53689;BME280;39583;54.682;30.662;2023-01-29T09:35:33;99504.06;;;-0.17;99.28
53689;BME280;39583;54.682;30.662;2023-01-29T09:37:59;99476.81;;;-0.27;99.26
53689;BME280;39583;54.682;30.662;2023-01-29T09:43:09;99461.28;;;-0.13;99.56
53689;BME280;39583;54.682;30.662;2023-01-29T09:45:51;99489.38;;;0.06;98.94
53689;BME280;39583;54.682;30.662;2023-01-29T09:48:19;99485.41;;;0.02;98.75
53689;BME280;39583;54.682;30.662;2023-01-29T09:50:49;99463.22;;;-0.15;98.42
53689;BME280;39583;54.682;30.662;2023-01-29T09:53:29;99473.88;;;-0.07;98.71
53689;BME280;39583;54.682;30.662;2023-01-29T09:56:20;99431.53;;;-0.42;98.47
53689;BME280;39583;54.682;30.662;2023-01-29T09:58:48;99467.31;;;-0.20;97.83
53689;BME280;39583;54.682;30.662;2023-01-29T10:04:48;99382.53;;;-0.82;97.32
53689;BME280;39583;54.682;30.662;2023-01-29T10:13:06;99464.78;;;-0.85;97.50
53689;BME280;39583;54.682;30.662;2023-01-29T10:15:54;99437.75;;;-1.06;96.69
53689;BME280;39583;54.682;30.662;2023-01-29T10:26:54;99453.25;;;-0.84;97.19
53689;BME280;39583;54.682;30.662;2023-01-29T10:29:20;99445.16;;;-0.82;97.00
53689;BME280;39583;54.682;30.662;2023-01-29T10:31:54;99404.09;;;-1.04;97.38
53689;BME280;39583;54.682;30.662;2023-01-29T10:34:45;99365.66;;;-1.16;97.24
53689;BME280;39583;54.682;30.662;2023-01-29T10:37:21;99441.59;;;-0.64;97.44
53689;BME280;39583;54.682;30.662;2023-01-29T10:39:49;99422.09;;;-0.63;97.65
53689;BME280;39583;54.682;30.662;2023-01-29T10:42:42;99340.00;;;-1.06;97.31
53689;BME280;39583;54.682;30.662;2023-01-29T10:45:20;99408.19;;;-0.47;97.42
53689;BME280;39583;54.682;30.662;2023-01-29T10:51:29;99408.50;;;-0.32;97.31
53689;BME280;39583;54.682;30.662;2023-01-29T10:54:15;99400.41;;;-0.31;96.87
53689;BME280;39583;54.682;30.662;2023-01-29T10:59:57;99383.09;;;-0.25;96.53
53689;BME280;39583;54.682;30.662;2023-01-29T11:02:27;99372.06;;;-0.38;95.79
53689;BME280;39583;54.682;30.662;2023-01-29T11:04:53;99381.84;;;-0.39;95.95
53689;BME280;39583;54.682;30.662;2023-01-29T11:07:21;99380.97;;;-0.39;95.98
53689;BME280;39583;54.682;30.662;2023-01-29T11:12:20;99322.66;;;-0.73;95.79
53689;BME280;39583;54.682;30.662;2023-01-29T11:17:26;99352.50;;;-0.45;96.10
53689;BME280;39583;54.682;30.662;2023-01-29T11:19:54;99343.41;;;-0.43;95.97
53689;BME280;39583;54.682;30.662;2023-01-29T11:22:24;99336.97;;;-0.40;95.81
53689;BME280;39583;54.682;30.662;2023-01-29T11:25:18;99333.66;;;-0.42;95.36
53689;BME280;39583;54.682;30.662;2023-01-29T11:27:56;99331.69;;;-0.40;95.72
53689;BME280;39583;54.682;30.662;2023-01-29T11:35:33;99327.53;;;-0.43;94.73
53689;BME280;39583;54.682;30.662;2023-01-29T11:38:29;99331.41;;;-0.37;95.36
53689;BME280;39583;54.682;30.662;2023-01-29T11:41:05;99250.44;;;-0.74;95.36
53689;BME280;39583;54.682;30.662;2023-01-29T11:43:32;99306.91;;;-0.39;95.12
53689;BME280;39583;54.682;30.662;2023-01-29T11:46:02;99323.38;;;-0.27;95.36
53689;BME280;39583;54.682;30.662;2023-01-29T11:48:43;99310.09;;;-0.36;95.09
53689;BME280;39583;54.682;30.662;2023-01-29T11:51:20;99237.91;;;-0.72;95.52
53689;BME280;39583;54.682;30.662;2023-01-29T11:53:57;99327.75;;;-0.18;95.00
53689;BME280;39583;54.682;30.662;2023-01-29T11:56:41;99311.66;;;-0.25;95.07
53689;BME280;39583;54.682;30.662;2023-01-29T12:02:06;99324.06;;;-0.25;94.19
53689;BME280;39583;54.682;30.662;2023-01-29T12:04:38;99323.53;;;-0.29;94.37
53689;BME280;39583;54.682;30.662;2023-01-29T12:07:11;99316.56;;;-0.30;94.18
53689;BME280;39583;54.682;30.662;2023-01-29T12:09:39;99322.69;;;-0.30;94.44
53689;BME280;39583;54.682;30.662;2023-01-29T12:12:17;99268.63;;;-0.53;94.89
53689;BME280;39583;54.682;30.662;2023-01-29T12:15:10;99306.72;;;-0.20;94.16
53689;BME280;39583;54.682;30.662;2023-01-29T12:17:39;99311.03;;;-0.19;94.71
53689;BME280;39583;54.682;30.662;2023-01-29T12:20:13;99308.91;;;-0.15;94.67
53689;BME280;39583;54.682;30.662;2023-01-29T12:31:25;99292.56;;;-0.11;94.19
53689;BME280;39583;54.682;30.662;2023-01-29T12:34:19;99304.03;;;-0.02;94.03
53689;BME280;39583;54.682;30.662;2023-01-29T12:36:59;99311.97;;;-0.02;94.03
53689;BME280;39583;54.682;30.662;2023-01-29T12:39:29;99307.50;;;-0.02;93.94
53689;BME280;39583;54.682;30.662;2023-01-29T12:42:02;99315.91;;;-0.06;93.85
53689;BME280;39583;54.682;30.662;2023-01-29T12:44:41;99314.88;;;-0.13;93.30
53689;BME280;39583;54.682;30.662;2023-01-29T12:47:15;99308.75;;;-0.14;93.94
53689;BME280;39583;54.682;30.662;2023-01-29T12:49:44;99304.16;;;-0.12;93.74
53689;BME280;39583;54.682;30.662;2023-01-29T12:52:21;99293.81;;;-0.23;93.53
53689;BME280;39583;54.682;30.662;2023-01-29T12:55:14;99303.41;;;-0.22;93.61
53689;BME280;39583;54.682;30.662;2023-01-29T12:57:57;99301.44;;;-0.20;93.71
53689;BME280;39583;54.682;30.662;2023-01-29T13:00:28;99300.94;;;-0.23;93.74
53689;BME280;39583;54.682;30.662;2023-01-29T13:03:07;99300.38;;;-0.27;93.68
53689;BME280;39583;54.682;30.662;2023-01-29T13:05:47;99301.53;;;-0.30;94.02
53689;BME280;39583;54.682;30.662;2023-01-29T13:08:38;99305.16;;;-0.31;93.97
53689;BME280;39583;54.682;30.662;2023-01-29T13:11:14;99287.44;;;-0.38;94.11
53689;BME280;39583;54.682;30.662;2023-01-29T13:13:51;99268.00;;;-0.47;93.91
53689;BME280;39583;54.682;30.662;2023-01-29T13:16:22;99275.47;;;-0.42;94.19
53689;BME280;39583;54.682;30.662;2023-01-29T13:19:01;99286.97;;;-0.34;94.05
53689;BME280;39583;54.682;30.662;2023-01-29T13:21:38;99266.19;;;-0.46;94.35
53689;BME280;39583;54.682;30.662;2023-01-29T13:24:12;99286.81;;;-0.32;94.17
53689;BME280;39583;54.682;30.662;2023-01-29T13:26:44;99284.63;;;-0.37;93.72
53689;BME280;39583;54.682;30.662;2023-01-29T13:29:22;99226.59;;;-0.82;93.58
53689;BME280;39583;54.682;30.662;2023-01-29T13:31:51;99273.16;;;-0.45;93.95
53689;BME280;39583;54.682;30.662;2023-01-29T13:34:24;99270.81;;;-0.48;94.05
53689;BME280;39583;54.682;30.662;2023-01-29T13:36:55;99265.84;;;-0.51;93.94
53689;BME280;39583;54.682;30.662;2023-01-29T13:39:30;99248.09;;;-0.59;93.75
53689;BME280;39583;54.682;30.662;2023-01-29T13:41:59;99246.44;;;-0.60;93.78
53689;BME280;39583;54.682;30.662;2023-01-29T13:44:34;99247.34;;;-0.69;93.22
53689;BME280;39583;54.682;30.662;2023-01-29T13:47:08;99209.84;;;-0.91;93.62
53689;BME280;39583;54.682;30.662;2023-01-29T13:49:43;99239.56;;;-0.71;93.99
53689;BME280;39583;54.682;30.662;2023-01-29T13:54:54;99180.78;;;-1.08;93.88
53689;BME280;39583;54.682;30.662;2023-01-29T14:07:57;99218.53;;;-0.98;93.66
53689;BME280;39583;54.682;30.662;2023-01-29T14:10:29;99228.56;;;-1.02;93.54
53689;BME280;39583;54.682;30.662;2023-01-29T14:15:45;99226.69;;;-1.09;94.19
53689;BME280;39583;54.682;30.662;2023-01-29T14:18:16;99212.13;;;-1.13;94.10
53689;BME280;39583;54.682;30.662;2023-01-29T14:23:44;99235.22;;;-1.15;94.00
53689;BME280;39583;54.682;30.662;2023-01-29T14:26:31;99218.38;;;-1.14;94.32
53689;BME280;39583;54.682;30.662;2023-01-29T14:31:41;99229.13;;;-1.16;94.50
53689;BME280;39583;54.682;30.662;2023-01-29T14:36:46;99211.66;;;-1.27;94.55
53689;BME280;39583;54.682;30.662;2023-01-29T14:41:50;99227.22;;;-1.24;94.60
53689;BME280;39583;54.682;30.662;2023-01-29T14:52:18;99224.88;;;-1.27;94.46
53689;BME280;39583;54.682;30.662;2023-01-29T14:54:46;99217.78;;;-1.26;94.43
53689;BME280;39583;54.682;30.662;2023-01-29T14:57:15;99214.97;;;-1.25;94.37
53689;BME280;39583;54.682;30.662;2023-01-29T14:59:58;99218.75;;;-1.27;94.27
53689;BME280;39583;54.682;30.662;2023-01-29T15:02:28;99210.28;;;-1.31;94.16
53689;BME280;39583;54.682;30.662;2023-01-29T15:05:06;99214.63;;;-1.30;94.42
53689;BME280;39583;54.682;30.662;2023-01-29T15:07:40;99208.34;;;-1.29;94.86
53689;BME280;39583;54.682;30.662;2023-01-29T15:10:19;99198.78;;;-1.30;94.93
53689;BME280;39583;54.682;30.662;2023-01-29T15:17:53;99179.81;;;-1.25;94.37
53689;BME280;39583;54.682;30.662;2023-01-29T15:20:29;99175.38;;;-1.25;94.92
53689;BME280;39583;54.682;30.662;2023-01-29T15:22:55;99181.31;;;-1.23;94.98
53689;BME280;39583;54.682;30.662;2023-01-29T15:25:22;99192.56;;;-1.21;94.65
53689;BME280;39583;54.682;30.662;2023-01-29T15:27:48;99176.19;;;-1.24;94.57
53689;BME280;39583;54.682;30.662;2023-01-29T15:30:21;99175.50;;;-1.26;94.42
53689;BME280;39583;54.682;30.662;2023-01-29T15:32:48;99169.09;;;-1.24;94.48
53689;BME280;39583;54.682;30.662;2023-01-29T15:35:18;99169.63;;;-1.20;94.87
53689;BME280;39583;54.682;30.662;2023-01-29T15:38:11;99175.56;;;-1.18;94.82
53689;BME280;39583;54.682;30.662;2023-01-29T15:40:39;99173.41;;;-1.23;94.77
53689;BME280;39583;54.682;30.662;2023-01-29T15:43:23;99162.31;;;-1.26;94.35
53689;BME280;39583;54.682;30.662;2023-01-29T15:45:50;99170.22;;;-1.26;94.38
53689;BME280;39583;54.682;30.662;2023-01-29T15:48:20;99166.75;;;-1.27;94.78
53689;BME280;39583;54.682;30.662;2023-01-29T15:50:49;99166.59;;;-1.25;94.67
53689;BME280;39583;54.682;30.662;2023-01-29T15:53:22;99168.09;;;-1.23;95.01
53689;BME280;39583;54.682;30.662;2023-01-29T15:55:50;99170.44;;;-1.20;94.80
53689;BME280;39583;54.682;30.662;2023-01-29T15:58:19;99164.88;;;-1.16;94.76
53689;BME280;39583;54.682;30.662;2023-01-29T16:00:54;99162.09;;;-1.15;94.82
53689;BME280;39583;54.682;30.662;2023-01-29T16:03:23;99154.31;;;-1.16;94.56
53689;BME280;39583;54.682;30.662;2023-01-29T16:05:51;99144.25;;;-1.31;94.59
53689;BME280;39583;54.682;30.662;2023-01-29T16:08:20;99168.34;;;-1.16;94.62
53689;BME280;39583;54.682;30.662;2023-01-29T16:10:50;99162.00;;;-1.23;94.29
53689;BME280;39583;54.682;30.662;2023-01-29T16:13:23;99146.16;;;-1.41;94.22
53689;BME280;39583;54.682;30.662;2023-01-29T16:16:02;99159.06;;;-1.38;94.01
53689;BME280;39583;54.682;30.662;2023-01-29T16:18:31;99164.19;;;-1.36;94.20
53689;BME280;39583;54.682;30.662;2023-01-29T16:21:01;99165.19;;;-1.37;94.34
53689;BME280;39583;54.682;30.662;2023-01-29T16:23:34;99173.78;;;-1.35;95.04
53689;BME280;39583;54.682;30.662;2023-01-29T16:26:05;99169.00;;;-1.32;95.13
53689;BME280;39583;54.682;30.662;2023-01-29T16:28:38;99165.09;;;-1.28;94.84
53689;BME280;39583;54.682;30.662;2023-01-29T16:31:04;99151.75;;;-1.26;94.94
53689;BME280;39583;54.682;30.662;2023-01-29T16:33:35;99148.94;;;-1.25;95.03
53689;BME280;39583;54.682;30.662;2023-01-29T16:36:07;99150.59;;;-1.24;94.99
53689;BME280;39583;54.682;30.662;2023-01-29T16:38:36;99138.38;;;-1.25;95.08
53689;BME280;39583;54.682;30.662;2023-01-29T16:43:49;99130.31;;;-1.23;95.39
53689;BME280;39583;54.682;30.662;2023-01-29T16:46:25;99126.66;;;-1.22;94.85
53689;BME280;39583;54.682;30.662;2023-01-29T16:48:52;99136.25;;;-1.21;95.41
53689;BME280;39583;54.682;30.662;2023-01-29T16:51:23;99132.34;;;-1.17;95.27
53689;BME280;39583;54.682;30.662;2023-01-29T16:53:58;99126.91;;;-1.15;95.27
53689;BME280;39583;54.682;30.662;2023-01-29T16:56:28;99130.22;;;-1.13;95.20
53689;BME280;39583;54.682;30.662;2023-01-29T16:58:55;99118.66;;;-1.12;95.33
53689;BME280;39583;54.682;30.662;2023-01-29T17:01:25;99123.13;;;-1.13;94.82
53689;BME280;39583;54.682;30.662;2023-01-29T17:04:12;99110.75;;;-1.12;94.90
53689;BME280;39583;54.682;30.662;2023-01-29T17:06:43;99114.88;;;-1.10;95.21
53689;BME280;39583;54.682;30.662;2023-01-29T17:09:21;99110.59;;;-1.11;95.18
53689;BME280;39583;54.682;30.662;2023-01-29T17:11:56;99095.22;;;-1.15;94.92
53689;BME280;39583;54.682;30.662;2023-01-29T17:14:29;99100.69;;;-1.09;95.18
53689;BME280;39583;54.682;30.662;2023-01-29T17:17:06;99106.47;;;-1.05;94.84
53689;BME280;39583;54.682;30.662;2023-01-29T17:19:33;99108.13;;;-1.04;95.28
53689;BME280;39583;54.682;30.662;2023-01-29T17:21:59;99100.09;;;-1.03;94.91
53689;BME280;39583;54.682;30.662;2023-01-29T17:24:29;99092.00;;;-1.01;94.82
53689;BME280;39583;54.682;30.662;2023-01-29T17:26:56;99088.00;;;-1.05;94.99
53689;BME280;39583;54.682;30.662;2023-01-29T17:29:27;99088.69;;;-1.03;94.75
53689;BME280;39583;54.682;30.662;2023-01-29T17:31:54;99090.03;;;-0.99;94.97
53689;BME280;39583;54.682;30.662;2023-01-29T17:34:22;99082.94;;;-0.99;94.73
53689;BME280;39583;54.682;30.662;2023-01-29T17:36:48;99082.25;;;-1.01;95.04
53689;BME280;39583;54.682;30.662;2023-01-29T17:39:22;99081.72;;;-1.04;94.60
53689;BME280;39583;54.682;30.662;2023-01-29T17:41:52;99081.72;;;-1.04;94.77
53689;BME280;39583;54.682;30.662;2023-01-29T17:44:19;99089.81;;;-1.06;94.61
53689;BME280;39583;54.682;30.662;2023-01-29T17:46:46;99088.47;;;-1.10;95.07
53689;BME280;39583;54.682;30.662;2023-01-29T17:49:22;99093.59;;;-1.08;94.74
53689;BME280;39583;54.682;30.662;2023-01-29T17:51:52;99076.91;;;-1.09;94.91
53689;BME280;39583;54.682;30.662;2023-01-29T17:54:19;99081.22;;;-1.08;95.19
53689;BME280;39583;54.682;30.662;2023-01-29T17:56:47;99079.22;;;-1.06;94.82
53689;BME280;39583;54.682;30.662;2023-01-29T17:59:21;99068.00;;;-1.08;94.77
53689;BME280;39583;54.682;30.662;2023-01-29T18:01:49;99068.66;;;-1.06;94.88
53689;BME280;39583;54.682;30.662;2023-01-29T18:04:16;99064.91;;;-1.03;94.95
53689;BME280;39583;54.682;30.662;2023-01-29T18:06:45;99044.22;;;-1.08;95.26
53689;BME280;39583;54.682;30.662;2023-01-29T18:09:13;99048.06;;;-1.02;94.90
53689;BME280;39583;54.682;30.662;2023-01-29T18:11:40;99046.09;;;-1.00;94.77
53689;BME280;39583;54.682;30.662;2023-01-29T18:14:08;99039.81;;;-0.99;95.17
53689;BME280;39583;54.682;30.662;2023-01-29T18:16:34;99045.09;;;-0.99;95.19
53689;BME280;39583;54.682;30.662;2023-01-29T18:21:43;99037.69;;;-0.96;95.36
53689;BME280;39583;54.682;30.662;2023-01-29T18:24:09;99027.63;;;-0.92;95.67
53689;BME280;39583;54.682;30.662;2023-01-29T18:26:35;99031.94;;;-0.91;95.33
53689;BME280;39583;54.682;30.662;2023-01-29T18:29:02;99021.06;;;-0.88;95.32
53689;BME280;39583;54.682;30.662;2023-01-29T18:31:30;99024.19;;;-0.84;95.25
53689;BME280;39583;54.682;30.662;2023-01-29T18:33:59;99025.84;;;-0.83;95.45
53689;BME280;39583;54.682;30.662;2023-01-29T18:36:26;99010.97;;;-0.84;95.67
53689;BME280;39583;54.682;30.662;2023-01-29T18:38:56;99013.69;;;-0.76;95.63
